Time;durP1;ratioP1;P1;durP2;ratioP2;P2;SDS_P1;SDS_P2;PMS_P1;PMS_P2;Temp;Humidity;BMP_temperature;BMP_pressure;BME280_temperature;BME280_humidity;BME280_pressure;Samples;Min_cycle;Max_cycle;Signal;HPM_P1;HPM_P2
2022/02/12 00:01:27;;;;;;;19.07;9.17;;;;;;;-2.89;100.00;100734.13;5106285;28;20131;-89
2022/02/12 00:04:06;;;;;;;23.63;9.90;;;;;;;-2.83;100.00;100753.44;5114428;28;20384;-89
2022/02/12 00:06:38;;;;;;;19.38;9.40;;;;;;;-2.84;100.00;100744.59;5094143;28;20044;-90
2022/02/12 00:09:21;;;;;;;16.70;8.33;;;;;;;-2.95;100.00;100725.50;5099198;28;20490;-90
2022/02/12 00:11:48;;;;;;;15.93;8.60;;;;;;;-2.97;100.00;100704.28;5115154;28;20056;-90
2022/02/12 00:14:14;;;;;;;17.60;8.80;;;;;;;-2.97;100.00;100724.69;5118056;27;20047;-90
2022/02/12 00:16:41;;;;;;;15.90;8.60;;;;;;;-3.00;100.00;100725.69;5135546;27;20071;-89
2022/02/12 00:19:08;;;;;;;16.60;8.87;;;;;;;-2.96;100.00;100729.97;5134857;27;20139;-89
2022/02/12 00:21:37;;;;;;;21.77;9.40;;;;;;;-2.89;100.00;100709.28;5135507;27;20469;-90
2022/02/12 00:24:07;;;;;;;18.88;9.48;;;;;;;-3.01;100.00;100697.34;5114680;27;20043;-90
2022/02/12 00:26:34;;;;;;;;;;;;;;;-2.99;100.00;100721.25;5114926;28;20047;-90
2022/02/12 00:29:01;;;;;;;16.67;8.60;;;;;;;-3.10;100.00;100709.22;5114558;27;20256;-90
2022/02/12 00:31:27;;;;;;;18.10;8.63;;;;;;;-3.09;100.00;100707.41;5106808;28;20062;-90
2022/02/12 00:33:56;;;;;;;17.80;8.47;;;;;;;-2.99;100.00;100719.44;5115033;28;20470;-90
2022/02/12 00:36:23;;;;;;;15.30;8.53;;;;;;;-3.21;100.00;100695.47;5115485;28;20104;-91
2022/02/12 00:38:51;;;;;;;17.33;8.80;;;;;;;-3.16;100.00;100721.88;5116360;28;20044;-90
2022/02/12 00:41:19;;;;;;;17.93;9.30;;;;;;;-3.30;100.00;100680.72;5114526;28;20051;-90
2022/02/12 00:43:47;;;;;;;23.80;8.57;;;;;;;-3.29;100.00;100678.94;5120710;27;20055;-90
2022/02/12 00:46:14;;;;;;;18.43;8.57;;;;;;;-3.25;100.00;100670.78;5131218;27;20040;-90
2022/02/12 00:48:41;;;;;;;16.73;8.17;;;;;;;-3.32;100.00;100668.44;5117854;28;20508;-91
2022/02/12 00:51:26;;;;;;;18.70;7.70;;;;;;;-3.24;100.00;100693.81;5115119;28;20052;-90
2022/02/12 00:53:53;;;;;;;12.90;7.73;;;;;;;-3.29;100.00;100693.09;5094942;28;20055;-90
2022/02/12 00:56:21;;;;;;;21.33;8.83;;;;;;;-3.30;100.00;100693.16;5105087;28;20437;-90
2022/02/12 00:58:48;;;;;;;19.93;9.37;;;;;;;-3.45;100.00;100670.69;5115606;28;20162;-90
2022/02/12 01:01:15;;;;;;;19.70;8.20;;;;;;;-3.40;100.00;100685.53;5115391;28;20065;-90
2022/02/12 01:03:42;;;;;;;15.67;7.33;;;;;;;-3.28;100.00;100685.97;5115290;28;20052;-90
2022/02/12 01:06:08;;;;;;;14.93;7.53;;;;;;;-3.28;100.00;100699.28;5114727;28;20050;-90
2022/02/12 01:08:35;;;;;;;16.03;8.17;;;;;;;-3.34;100.00;100695.09;5115056;28;20051;-90
2022/02/12 01:11:03;;;;;;;17.50;8.20;;;;;;;-3.48;100.00;100694.72;5114748;28;20096;-90
2022/02/12 01:13:32;;;;;;;18.37;8.70;;;;;;;-3.43;100.00;100693.63;5114587;28;20070;-90
2022/02/12 01:15:59;;;;;;;15.90;7.87;;;;;;;-3.34;100.00;100703.06;5114075;28;20071;-90
2022/02/12 01:18:25;;;;;;;16.43;8.07;;;;;;;-3.51;100.00;100692.19;5114725;28;20050;-90
2022/02/12 01:20:55;;;;;;;13.73;7.80;;;;;;;-3.38;100.00;100712.94;5113456;28;20078;-90
2022/02/12 01:23:21;;;;;;;16.00;7.90;;;;;;;-3.59;100.00;100689.81;5114718;28;20040;-91
2022/02/12 01:25:50;;;;;;;16.80;7.87;;;;;;;-3.51;100.00;100697.50;5114556;28;20471;-90
2022/02/12 01:28:17;;;;;;;11.27;7.03;;;;;;;-3.57;100.00;100696.81;5115188;28;20047;-90
2022/02/12 01:30:46;;;;;;;14.07;8.10;;;;;;;-3.48;100.00;100686.75;5114677;28;20048;-90
2022/02/12 01:33:21;;;;;;;19.07;7.67;;;;;;;-3.53;100.00;100686.94;5114694;28;20055;-90
2022/02/12 01:35:48;;;;;;;16.87;7.07;;;;;;;-3.75;100.00;100679.75;5114337;28;20051;-91
2022/02/12 01:38:19;;;;;;;14.60;7.43;;;;;;;-3.79;100.00;100698.53;5116349;27;20096;-90
2022/02/12 01:40:49;;;;;;;15.47;7.17;;;;;;;-3.92;100.00;100684.81;5114859;28;20097;-90
2022/02/12 01:43:19;;;;;;;;;;;;;;;-3.85;100.00;100709.38;5116133;28;20094;-90
2022/02/12 01:45:47;;;;;;;17.05;7.47;;;;;;;-3.93;100.00;100699.91;5115363;28;20373;-90
2022/02/12 01:48:14;;;;;;;18.77;8.17;;;;;;;-3.88;100.00;100682.91;5115278;28;20047;-91
2022/02/12 01:50:43;;;;;;;14.63;7.60;;;;;;;-3.74;100.00;100700.09;5115274;28;20043;-90
2022/02/12 01:53:11;;;;;;;19.33;8.43;;;;;;;-3.99;100.00;100667.34;5115263;28;20047;-91
2022/02/12 01:55:38;;;;;;;20.50;8.17;;;;;;;-4.00;100.00;100668.31;5115087;28;20043;-91
2022/02/12 01:58:09;;;;;;;14.23;7.27;;;;;;;-4.02;100.00;100668.34;5115310;28;20067;-91
2022/02/12 02:00:37;;;;;;;20.97;8.47;;;;;;;-4.02;100.00;100664.81;5115265;28;20055;-91
2022/02/12 02:03:06;;;;;;;13.50;8.10;;;;;;;-3.92;100.00;100659.09;5115069;28;20078;-91
2022/02/12 02:05:33;;;;;;;14.97;8.00;;;;;;;-3.93;100.00;100670.69;5114450;28;20567;-91
2022/02/12 02:08:03;;;;;;;23.57;7.73;;;;;;;-4.07;100.00;100656.16;5115046;28;20104;-91
2022/02/12 02:10:30;;;;;;;17.03;8.30;;;;;;;-3.96;100.00;100665.47;5115180;28;20047;-91
2022/02/12 02:12:56;;;;;;;18.80;8.90;;;;;;;-4.00;100.00;100668.31;5115423;28;20052;-91
2022/02/12 02:15:23;;;;;;;14.80;8.13;;;;;;;-3.92;100.00;100684.81;5114908;28;20108;-91
2022/02/12 02:17:51;;;;;;;20.83;7.97;;;;;;;-4.00;100.00;100684.25;5114599;28;20138;-91
2022/02/12 02:20:19;;;;;;;18.37;7.70;;;;;;;-4.05;100.00;100660.50;5114970;28;20052;-91
2022/02/12 02:22:52;;;;;;;16.30;7.97;;;;;;;-3.85;100.00;100677.47;5114718;28;20522;-91
2022/02/12 02:25:19;;;;;;;18.10;9.30;;;;;;;-3.93;100.00;100670.69;5114791;28;20138;-91
2022/02/12 02:27:46;;;;;;;19.27;7.40;;;;;;;-4.10;100.00;100657.13;5114458;28;20120;-91
2022/02/12 02:30:15;;;;;;;15.43;7.60;;;;;;;-4.13;100.00;100675.81;5114611;28;20108;-91
2022/02/12 02:32:42;;;;;;;16.43;6.73;;;;;;;-4.26;100.00;100648.81;5114168;28;20096;-91
2022/02/12 02:35:11;;;;;;;16.60;8.20;;;;;;;-4.24;100.00;100647.00;5114396;28;20052;-91
2022/02/12 02:37:39;;;;;;;14.57;7.33;;;;;;;-4.29;100.00;100643.63;5114774;28;20051;-91
2022/02/12 02:40:16;;;;;;;13.33;6.80;;;;;;;-4.29;100.00;100646.28;5114571;28;20052;-91
2022/02/12 02:42:47;;;;;;;16.63;7.33;;;;;;;-4.31;100.00;100645.47;5115066;28;20548;-91
2022/02/12 02:45:15;;;;;;;;;;;;;;;-4.27;100.00;100661.25;5115139;28;20050;-91
2022/02/12 02:47:43;;;;;;;10.50;5.83;;;;;;;-4.29;100.00;100652.47;5114616;28;19929;-91
2022/02/12 02:58:26;;;;;;;13.40;7.27;;;;;;;-4.32;100.00;100625.13;5114476;28;20510;-92
2022/02/12 03:00:54;;;;;;;14.43;6.97;;;;;;;-4.30;100.00;100629.47;5114554;28;20043;-91
2022/02/12 03:03:21;;;;;;;21.63;7.10;;;;;;;-4.32;100.00;100626.03;5114751;28;20097;-91
2022/02/12 03:05:47;;;;;;;15.00;8.17;;;;;;;-4.22;100.00;100641.63;5114295;28;20051;-90
2022/02/12 03:08:14;;;;;;;20.83;7.77;;;;;;;-4.18;100.00;100640.59;5114086;28;20071;-90
2022/02/12 03:10:43;;;;;;;18.00;7.80;;;;;;;-4.32;100.00;100618.06;5114593;28;20130;-90
2022/02/12 03:13:12;;;;;;;15.13;8.23;;;;;;;-4.18;100.00;100643.25;5114549;28;20051;-90
2022/02/12 03:15:40;;;;;;;17.97;7.93;;;;;;;-4.33;100.00;100621.63;5114230;28;20124;-90
2022/02/12 03:18:07;;;;;;;19.00;7.67;;;;;;;-4.24;100.00;100648.78;5114371;28;20048;-91
2022/02/12 03:20:34;;;;;;;17.03;8.17;;;;;;;-4.27;100.00;100637.34;5114912;28;20047;-90
2022/02/12 03:23:01;;;;;;;16.90;7.77;;;;;;;-4.33;100.00;100636.69;5114414;28;20078;-90
2022/02/12 03:25:28;;;;;;;13.27;7.00;;;;;;;-4.41;100.00;100633.44;5114602;28;20043;-90
2022/02/12 03:27:57;;;;;;;15.80;8.07;;;;;;;-4.45;100.00;100622.06;5117723;28;20104;-90
2022/02/12 03:30:24;;;;;;;12.15;6.53;;;;;;;-4.44;100.00;100615.84;5114249;28;20059;-90
2022/02/12 03:32:51;;;;;;;12.10;6.00;;;;;;;-4.58;100.00;100611.00;5114233;28;20128;-90
2022/02/12 03:35:18;;;;;;;11.60;6.73;;;;;;;-4.59;100.00;100621.66;5113820;28;20047;-90
2022/02/12 03:37:45;;;;;;;10.47;6.77;;;;;;;-4.66;100.00;100619.22;5114244;28;20134;-90
2022/02/12 03:40:13;;;;;;;15.83;7.87;;;;;;;-4.55;100.00;100620.66;5114240;28;20051;-90
2022/02/12 03:42:41;;;;;;;14.43;6.70;;;;;;;-4.58;100.00;100605.69;5114101;28;20048;-90
2022/02/12 03:45:11;;;;;;;14.87;7.93;;;;;;;-4.62;100.00;100609.38;5118048;28;20079;-90
2022/02/12 03:47:38;;;;;;;19.05;7.05;;;;;;;-4.52;100.00;100626.69;5117819;28;20043;-90
2022/02/12 03:50:05;;;;;;;13.50;6.73;;;;;;;-4.66;100.00;100599.78;5118229;28;20546;-90
2022/02/12 03:52:32;;;;;;;15.27;6.93;;;;;;;-4.72;100.00;100592.03;5118125;28;20547;-91
2022/02/12 03:54:59;;;;;;;16.30;7.17;;;;;;;-4.69;100.00;100583.97;5117361;28;20047;-90
2022/02/12 03:57:26;;;;;;;23.97;7.93;;;;;;;-4.59;100.00;100613.69;5118030;28;20054;-90
2022/02/12 03:59:54;;;;;;;11.67;6.30;;;;;;;-4.68;100.00;100610.47;5118091;28;20048;-90
2022/02/12 04:02:25;;;;;;;12.70;6.40;;;;;;;-4.73;100.00;100596.47;5117590;28;20051;-90
2022/02/12 04:04:57;;;;;;;18.47;7.33;;;;;;;-4.73;100.00;100599.13;5117683;28;20061;-90
2022/02/12 04:07:24;;;;;;;11.70;5.97;;;;;;;-4.76;100.00;100585.09;5117413;28;20048;-91
2022/02/12 04:10:03;;;;;;;;;;;;;;;;;;;;;
2022/02/12 04:12:30;;;;;;;;;;;;;;;-4.70;100.00;100599.00;5117635;28;20051;-91
2022/02/12 04:15:03;;;;;;;15.70;6.97;;;;;;;-4.84;100.00;100572.97;5117715;28;19965;-91
2022/02/12 04:17:34;;;;;;;18.03;6.77;;;;;;;-4.88;100.00;100581.06;5117383;28;20047;-90
2022/02/12 04:20:04;;;;;;;17.70;6.67;;;;;;;-4.92;100.00;100569.72;5116985;28;20055;-90
2022/02/12 04:22:34;;;;;;;11.43;6.60;;;;;;;-4.88;100.00;100576.63;5117088;28;20432;-91
2022/02/12 04:25:07;;;;;;;19.10;6.90;;;;;;;-4.91;100.00;100570.56;5117577;28;20123;-91
2022/02/12 04:27:35;;;;;;;19.50;7.90;;;;;;;-4.98;100.00;100551.34;5116931;28;20504;-91
2022/02/12 04:30:08;;;;;;;16.47;7.17;;;;;;;-4.90;100.00;100564.34;5117240;28;20051;-90
2022/02/12 04:32:51;;;;;;;17.67;7.17;;;;;;;-4.86;100.00;100580.13;5117201;28;20052;-91
2022/02/12 04:35:23;;;;;;;16.47;7.00;;;;;;;-4.87;100.00;100573.06;5117658;28;20055;-91
2022/02/12 04:38:03;;;;;;;21.77;8.03;;;;;;;-4.95;100.00;100555.66;5117047;28;20100;-92
2022/02/12 04:40:33;;;;;;;18.90;6.27;;;;;;;-4.90;100.00;100570.50;5117338;28;20058;-91
2022/02/12 04:43:05;;;;;;;21.80;7.63;;;;;;;-5.08;100.00;100537.53;5117045;28;20047;-91
2022/02/12 04:45:32;;;;;;;23.23;8.43;;;;;;;-5.05;100.00;100555.13;5117290;28;20051;-91
2022/02/12 04:48:11;;;;;;;22.50;9.60;;;;;;;-5.14;100.00;100542.19;5116514;28;20050;-91
2022/02/12 04:50:38;;;;;;;24.87;8.73;;;;;;;-5.07;100.00;100538.38;5117025;28;20071;-91
2022/02/12 04:53:14;;;;;;;33.07;9.43;;;;;;;-5.14;100.00;100524.47;5116432;28;20134;-91
2022/02/12 04:55:43;;;;;;;23.47;9.47;;;;;;;-4.96;100.00;100564.56;5116524;28;20104;-91
2022/02/12 04:58:10;;;;;;;21.13;8.95;;;;;;;-5.07;100.00;100552.53;5116898;28;20051;-90
2022/02/12 05:00:36;;;;;;;21.13;8.67;;;;;;;-5.07;100.00;100552.53;5116655;28;20052;-91
2022/02/12 05:03:17;;;;;;;20.67;8.97;;;;;;;-5.12;100.00;100532.38;5116582;28;20449;-91
2022/02/12 05:05:44;;;;;;;20.27;7.67;;;;;;;-5.24;100.00;100529.25;5117195;28;20142;-91
2022/02/12 05:08:10;;;;;;;20.73;7.37;;;;;;;-5.23;100.00;100528.28;5115984;28;20052;-91
2022/02/12 05:10:39;;;;;;;23.90;7.77;;;;;;;-5.30;100.00;100523.25;5116596;28;20126;-91
2022/02/12 05:13:08;;;;;;;19.70;7.17;;;;;;;-5.24;100.00;100539.84;5116383;28;20063;-91
2022/02/12 05:15:35;;;;;;;15.18;7.63;;;;;;;-5.35;100.00;100518.97;5116497;28;20047;-91
2022/02/12 05:18:02;;;;;;;19.20;8.30;;;;;;;-5.44;100.00;100508.66;5116218;28;20074;-91
2022/02/12 05:20:30;;;;;;;24.60;7.70;;;;;;;-5.47;100.00;100502.63;5118368;28;20614;-92
2022/02/12 05:22:57;;;;;;;14.33;8.13;;;;;;;-5.43;100.00;100522.81;5116864;28;20131;-90
2022/02/12 05:25:27;;;;;;;13.60;6.43;;;;;;;-5.40;100.00;100528.88;5116149;28;20059;-91
2022/02/12 05:27:53;;;;;;;20.75;7.47;;;;;;;-5.48;100.00;100516.78;5115941;28;20043;-91
2022/02/12 05:30:20;;;;;;;18.40;7.43;;;;;;;-5.36;100.00;100516.38;5115800;28;20055;-91
2022/02/12 05:32:47;;;;;;;19.43;6.77;;;;;;;-5.38;100.00;100511.13;5116063;28;20052;-91
2022/02/12 05:35:14;;;;;;;13.67;7.03;;;;;;;-5.42;100.00;100498.91;5116557;28;20079;-91
2022/02/12 05:37:44;;;;;;;16.77;7.10;;;;;;;-5.44;100.00;100513.13;5116007;28;20101;-91
2022/02/12 05:40:11;;;;;;;19.07;7.33;;;;;;;-5.65;100.00;100493.47;5115768;28;20051;-91
2022/02/12 05:42:38;;;;;;;16.43;7.27;;;;;;;-5.71;100.00;100492.75;5115910;28;20479;-91
2022/02/12 05:45:05;;;;;;;21.07;7.27;;;;;;;-5.74;100.00;100499.94;5115666;28;20478;-91
2022/02/12 05:47:32;;;;;;;15.07;6.27;;;;;;;-5.58;100.00;100514.44;5115573;28;20075;-91
2022/02/12 05:49:59;;;;;;;13.63;5.47;;;;;;;-5.60;100.00;100486.22;5115981;28;20454;-91
2022/02/12 05:52:27;;;;;;;15.23;6.73;;;;;;;-5.62;100.00;100469.53;5115578;28;20134;-91
2022/02/12 05:54:56;;;;;;;14.00;6.33;;;;;;;-5.72;100.00;100498.97;5115454;28;20440;-91
2022/02/12 05:57:23;;;;;;;13.03;5.53;;;;;;;-5.82;100.00;100489.59;5115393;28;20047;-91
2022/02/12 05:59:50;;;;;;;17.17;5.63;;;;;;;-5.79;100.00;100502.72;5115296;28;20081;-91
2022/02/12 06:02:16;;;;;;;14.47;5.83;;;;;;;-5.89;100.00;100488.03;5115146;28;20055;-91
2022/02/12 06:04:43;;;;;;;10.43;5.20;;;;;;;-5.76;100.00;100504.41;5115027;28;20055;-91
2022/02/12 06:07:12;;;;;;;18.77;5.60;;;;;;;-5.79;100.00;100492.13;5114549;28;20055;-91
2022/02/12 06:09:39;;;;;;;14.20;5.43;;;;;;;-5.69;100.00;100504.19;5114516;28;20082;-91
2022/02/12 06:12:09;;;;;;;11.23;5.67;;;;;;;-5.65;100.00;100491.69;5115648;28;20044;-90
2022/02/12 06:14:36;;;;;;;15.40;6.13;;;;;;;-5.81;100.00;100478.09;5115095;28;20047;-90
2022/02/12 06:17:03;;;;;;;15.30;5.60;;;;;;;-5.89;100.00;100474.78;5115048;28;20156;-90
2022/02/12 06:19:30;;;;;;;11.30;5.80;;;;;;;-5.99;100.00;100476.03;5114344;28;20056;-90
2022/02/12 06:21:56;;;;;;;22.20;5.40;;;;;;;-5.86;100.00;100490.59;5114545;28;20092;-90
2022/02/12 06:24:23;;;;;;;11.13;5.50;;;;;;;-5.98;100.00;100469.81;5114170;28;20079;-91
2022/02/12 06:26:56;;;;;;;19.70;6.13;;;;;;;-5.90;100.00;100483.66;5114411;28;20533;-90
2022/02/12 06:29:25;;;;;;;13.43;5.07;;;;;;;-5.92;100.00;100466.94;5114310;28;20407;-91
2022/02/12 06:31:52;;;;;;;16.73;4.93;;;;;;;-5.85;100.00;100473.78;5114512;28;20075;-90
2022/02/12 06:34:19;;;;;;;16.10;5.87;;;;;;;-5.92;100.00;100459.84;5114053;28;20043;-90
2022/02/12 06:36:47;;;;;;;15.03;7.00;;;;;;;-5.91;100.00;100474.00;5114320;28;20078;-90
2022/02/12 06:39:14;;;;;;;14.10;5.60;;;;;;;-6.03;100.00;100466.47;5114124;28;20058;-90
2022/02/12 06:41:41;;;;;;;16.90;5.47;;;;;;;-5.95;100.00;100482.94;5114312;28;20139;-90
2022/02/12 06:44:08;;;;;;;13.27;6.70;;;;;;;-5.97;100.00;100472.44;5112967;28;20495;-90
2022/02/12 06:46:36;;;;;;;11.43;6.07;;;;;;;-5.78;100.00;100477.09;5113949;28;20134;-90
2022/02/12 06:49:03;;;;;;;18.13;7.10;;;;;;;-5.70;100.00;100469.78;5113850;28;20383;-90
2022/02/12 06:51:40;;;;;;;14.50;6.93;;;;;;;-5.78;100.00;100477.09;5095562;28;20055;-91
2022/02/12 06:54:07;;;;;;;16.70;7.80;;;;;;;-5.76;100.00;100486.72;5113776;28;20052;-90
2022/02/12 06:56:36;;;;;;;16.90;7.63;;;;;;;-5.72;100.00;100483.06;5114754;28;20135;-90
2022/02/12 06:59:03;;;;;;;17.93;8.23;;;;;;;-5.72;100.00;100491.03;5113825;28;20441;-90
2022/02/12 07:01:30;;;;;;;18.97;8.23;;;;;;;-5.66;100.00;100474.06;5113567;28;20058;-90
2022/02/12 07:04:01;;;;;;;18.13;7.43;;;;;;;-5.72;100.00;100469.84;5095545;28;20078;-90
2022/02/12 07:06:28;;;;;;;23.80;8.83;;;;;;;-5.71;100.00;100484.78;5093909;28;20058;-90
2022/02/12 07:08:54;;;;;;;22.00;8.70;;;;;;;-5.72;100.00;100475.13;5093745;28;20044;-90
2022/02/12 07:11:24;;;;;;;21.73;6.70;;;;;;;-5.47;100.00;100505.25;5093949;28;20067;-91
2022/02/12 07:13:51;;;;;;;28.73;11.52;;;;;;;-5.56;100.00;100478.13;5100425;28;20111;-90
2022/02/12 07:16:20;;;;;;;25.83;8.87;;;;;;;-5.55;100.00;100482.53;5116348;28;20130;-91
2022/02/12 07:18:50;;;;;;;47.58;10.45;;;;;;;-5.55;100.00;100476.38;5119029;28;20503;-92
2022/02/12 07:21:19;;;;;;;51.47;8.27;;;;;;;-5.61;100.00;100465.97;5118762;28;20048;-89
2022/02/12 07:23:46;;;;;;;68.17;9.97;;;;;;;-5.51;100.00;100496.53;5118623;28;20133;-89
2022/02/12 07:26:13;;;;;;;30.53;9.13;;;;;;;-5.54;100.00;100480.72;5118504;28;20135;-90
2022/02/12 07:28:42;;;;;;;33.37;9.37;;;;;;;-5.45;100.00;100485.75;5119076;28;20528;-90
2022/02/12 07:31:11;;;;;;;54.47;8.88;;;;;;;-5.28;100.00;100493.13;5119114;28;20498;-90
2022/02/12 07:33:37;;;;;;;29.67;8.60;;;;;;;-5.40;100.00;100467.03;5118344;28;20047;-91
2022/02/12 07:36:07;;;;;;;29.63;8.67;;;;;;;-5.14;100.00;100479.41;5118787;28;20071;-90
2022/02/12 07:38:40;;;;;;;;;;;;;;;-5.16;100.00;100498.00;5118712;28;20047;-91
2022/02/12 07:41:07;;;;;;;67.57;9.30;;;;;;;-5.16;100.00;100470.63;5118089;28;19951;-90
2022/02/12 07:43:36;;;;;;;40.73;7.93;;;;;;;-5.11;100.00;100473.97;5117875;28;20054;-88
2022/02/12 07:46:04;;;;;;;27.58;8.07;;;;;;;-4.93;100.00;100487.53;5117938;28;20047;-86
2022/02/12 07:48:30;;;;;;;43.60;10.07;;;;;;;-4.77;100.00;100504.66;5116235;28;20644;-87
2022/02/12 07:51:00;;;;;;;41.20;8.90;;;;;;;-4.85;100.00;100491.66;5117111;28;20051;-88
2022/02/12 07:53:27;;;;;;;25.52;8.60;;;;;;;-4.77;100.00;100493.13;5116250;28;20052;-89
2022/02/12 07:55:55;;;;;;;41.33;10.57;;;;;;;-4.81;100.00;100487.94;5116990;28;20051;-87
2022/02/12 07:58:22;;;;;;;44.87;10.30;;;;;;;-4.66;100.00;100498.94;5116682;28;20113;-89
2022/02/12 08:00:49;;;;;;;50.53;9.93;;;;;;;-4.81;100.00;100493.25;5117096;28;20044;-89
2022/02/12 08:03:16;;;;;;;45.53;8.50;;;;;;;-4.93;100.00;100490.19;5115728;28;20051;-91
2022/02/12 08:05:43;;;;;;;72.93;9.30;;;;;;;-4.72;100.00;100502.69;5116318;28;20146;-90
2022/02/12 08:08:13;;;;;;;45.60;9.43;;;;;;;-4.56;100.00;100524.25;5117428;28;20067;-89
2022/02/12 08:13:46;;;;;;;45.77;9.60;;;;;;;-4.20;100.00;100522.91;5116757;28;20169;-90
2022/02/12 08:16:18;;;;;;;26.03;9.83;;;;;;;-4.09;100.00;100499.50;5117600;28;20044;-90
2022/02/12 08:18:51;;;;;;;39.30;9.63;;;;;;;-4.18;100.00;100497.19;5118133;28;20130;-90
2022/02/12 08:21:18;;;;;;;52.57;10.07;;;;;;;-4.05;100.00;100478.97;5117387;28;20142;-90
2022/02/12 08:23:51;;;;;;;35.60;7.77;;;;;;;-3.98;100.00;100501.72;5117335;28;20052;-90
2022/02/12 08:26:25;;;;;;;46.63;9.83;;;;;;;-3.82;100.00;100500.19;5117213;28;20414;-90
2022/02/12 08:28:55;;;;;;;41.40;10.10;;;;;;;-3.66;100.00;100491.59;5115696;28;20094;-90
2022/02/12 08:31:22;;;;;;;28.63;9.30;;;;;;;-3.61;100.00;100474.56;5117023;28;20418;-89
2022/02/12 08:33:49;;;;;;;43.40;10.27;;;;;;;-3.69;100.00;100468.66;5116602;28;20074;-90
2022/02/12 08:36:17;;;;;;;51.30;10.70;;;;;;;-3.74;100.00;100449.41;5116749;28;20471;-90
2022/02/12 08:38:46;;;;;;;41.22;10.20;;;;;;;-3.57;100.00;100464.66;5116416;28;20407;-90
2022/02/12 08:41:13;;;;;;;54.93;10.50;;;;;;;-3.47;100.00;100457.16;5115974;28;20048;-90
2022/02/12 08:43:58;;;;;;;30.57;9.80;;;;;;;-3.60;100.00;100454.13;5116629;28;20056;-91
2022/02/12 08:46:30;;;;;;;46.37;9.30;;;;;;;-3.54;100.00;100456.53;5115758;28;20056;-90
2022/02/12 08:49:06;;;;;;;26.27;10.53;;;;;;;-3.54;100.00;100471.63;5115539;28;20054;-89
2022/02/12 08:51:39;;;;;;;37.03;13.20;;;;;;;-3.52;100.00;100475.97;5097852;28;20098;-90
2022/02/12 08:54:11;;;;;;;30.23;11.10;;;;;;;-3.64;100.00;100479.13;5114933;28;20058;-90
2022/02/12 08:56:40;;;;;;;21.97;8.80;;;;;;;-3.52;100.00;100475.97;5115155;28;20116;-90
2022/02/12 08:59:12;;;;;;;29.30;9.43;;;;;;;-3.56;100.00;100461.91;5114773;28;20051;-90
2022/02/12 09:01:45;;;;;;;22.40;8.87;;;;;;;-3.32;100.00;100458.31;5114718;28;20127;-90
2022/02/12 09:04:15;;;;;;;18.70;11.17;;;;;;;-3.16;100.00;100471.81;5114414;28;20044;-90
2022/02/12 09:06:50;;;;;;;24.77;10.60;;;;;;;-3.02;100.00;100466.78;5114247;28;20044;-90
2022/02/12 09:09:23;;;;;;;24.60;10.00;;;;;;;-3.06;100.00;100442.09;5115553;27;20059;-90
2022/02/12 09:12:00;;;;;;;23.00;10.87;;;;;;;-2.90;100.00;100452.94;5135475;27;20047;-90
2022/02/12 09:14:29;;;;;;;21.77;10.30;;;;;;;-2.88;100.00;100447.53;5131007;27;20138;-90
2022/02/12 09:17:03;;;;;;;26.83;11.40;;;;;;;-2.67;100.00;100459.88;5114770;28;20079;-90
2022/02/12 09:19:35;;;;;;;27.00;12.00;;;;;;;-2.69;100.00;100447.59;5114176;28;20553;-90
2022/02/12 09:22:02;;;;;;;25.60;11.40;;;;;;;-2.52;100.00;100466.31;5114256;28;20051;-90
2022/02/12 09:24:29;;;;;;;21.70;11.57;;;;;;;-2.69;100.00;100444.94;5113641;28;20051;-90
2022/02/12 09:26:56;;;;;;;23.03;11.13;;;;;;;-2.53;100.00;100461.06;5114159;28;20109;-90
2022/02/12 09:29:22;;;;;;;23.00;10.63;;;;;;;-2.41;100.00;100447.22;5113602;28;20054;-89
2022/02/12 09:31:52;;;;;;;23.10;12.20;;;;;;;-2.22;100.00;100457.00;5112929;28;20039;-90
2022/02/12 09:34:22;;;;;;;23.77;12.85;;;;;;;-2.22;100.00;100425.88;5112499;28;20071;-89
2022/02/12 09:36:52;;;;;;;23.00;12.03;;;;;;;-2.24;100.00;100414.44;5113087;28;20048;-89
2022/02/12 09:39:24;;;;;;;24.73;11.60;;;;;;;-2.13;100.00;100433.44;5118635;27;20487;-89
2022/02/12 09:41:51;;;;;;;21.37;10.97;;;;;;;-2.13;100.00;100429.91;5114596;27;20570;-89
2022/02/12 09:44:17;;;;;;;21.63;11.90;;;;;;;-2.19;100.00;100407.09;5112982;28;20104;-89
2022/02/12 09:47:30;;;;;;;22.30;11.13;;;;;;;-1.87;100.00;100427.81;5114159;28;20058;-89
2022/02/12 09:50:05;;;;;;;26.83;13.33;;;;;;;-1.99;100.00;100406.16;5075948;28;20079;-89
2022/02/12 09:52:35;;;;;;;36.77;15.20;;;;;;;-1.98;100.00;100393.69;5111357;28;20047;-89
2022/02/12 09:55:12;;;;;;;;;;;;;;;-1.74;100.00;100420.09;5106691;27;20047;-89
2022/02/12 09:57:40;;;;;;;26.23;12.07;;;;;;;-1.71;100.00;100417.25;5085393;28;19919;-90
2022/02/12 10:00:09;;;;;;;28.90;13.90;;;;;;;-1.64;100.00;100389.31;5111780;28;20437;-89
2022/02/12 10:02:46;;;;;;;27.35;13.75;;;;;;;-1.52;100.00;100390.50;5113042;28;20043;-90
2022/02/12 10:05:26;;;;;;;20.63;11.50;;;;;;;-1.45;100.00;100374.13;5113072;28;20069;-89
2022/02/12 10:08:12;;;;;;;23.55;12.13;;;;;;;-1.28;100.00;100383.06;5112725;28;20050;-89
2022/02/12 10:10:42;;;;;;;31.73;12.07;;;;;;;-1.16;100.00;100374.44;5080949;28;20055;-90
2022/02/12 10:13:14;;;;;;;27.93;12.20;;;;;;;-1.00;100.00;100371.81;5111796;28;20058;-90
2022/02/12 10:15:49;;;;;;;21.20;11.13;;;;;;;-0.86;100.00;100376.41;5121052;27;20096;-87
2022/02/12 10:18:19;;;;;;;20.63;9.80;;;;;;;-0.68;100.00;100371.03;5126135;27;20073;-91
2022/02/12 10:20:48;;;;;;;15.18;7.95;;;;;;;-0.53;100.00;100362.16;5094126;28;20098;-89
2022/02/12 10:23:18;;;;;;;24.13;9.93;;;;;;;-0.26;100.00;100369.59;5094337;28;20047;-89
2022/02/12 10:25:46;;;;;;;13.55;5.95;;;;;;;0.09;100.00;100362.25;5096513;28;20044;-86
2022/02/12 10:28:16;;;;;;;11.10;5.33;;;;;;;0.40;100.00;100363.13;5114914;27;20059;-88
2022/02/12 10:30:44;;;;;;;10.38;5.03;;;;;;;0.55;100.00;100356.00;5113923;28;20142;-88
2022/02/12 10:33:12;;;;;;;17.70;6.18;;;;;;;0.91;100.00;100364.59;5114901;27;20138;-88
2022/02/12 10:35:40;;;;;;;25.90;11.73;;;;;;;1.14;100.00;100349.78;5113469;28;20071;-84
2022/02/12 10:38:12;;;;;;;21.85;7.80;;;;;;;1.27;100.00;100339.16;5102801;28;20143;-89
2022/02/12 10:40:43;;;;;;;11.07;5.15;;;;;;;1.35;100.00;100335.03;5093843;28;20127;-89
2022/02/12 10:43:11;;;;;;;12.88;5.15;;;;;;;1.41;100.00;100320.38;5092854;28;20055;-89
2022/02/12 10:45:38;;;;;;;14.88;5.35;;;;;;;1.51;100.00;100310.81;5117480;27;20040;-89
2022/02/12 10:48:07;;;;;;;12.50;4.53;;;;;;;1.60;100.00;100325.44;5114206;28;20058;-89
2022/02/12 10:50:34;;;;;;;15.18;4.80;;;;;;;1.86;100.00;100334.44;5113281;28;20046;-89
2022/02/12 10:53:07;;;;;;;6.13;3.85;;;;;;;2.04;100.00;100323.47;5113211;28;20491;-89
2022/02/12 10:55:38;;;;;;;11.63;4.47;;;;;;;2.00;100.00;100303.19;5110713;28;20056;-89
2022/02/12 10:58:06;;;;;;;12.90;4.00;;;;;;;2.07;100.00;100316.06;5113034;28;20483;-89
2022/02/12 11:00:35;;;;;;;11.95;3.53;;;;;;;2.06;100.00;100303.66;5131721;28;20047;-88
2022/02/12 11:03:05;;;;;;;11.52;3.70;;;;;;;2.26;100.00;100322.91;5133715;28;20059;-89
2022/02/12 11:05:33;;;;;;;10.38;3.85;;;;;;;2.25;100.00;100286.31;5134254;28;20051;-89
2022/02/12 11:08:00;;;;;;;9.90;2.85;;;;;;;2.41;98.67;100289.66;5133603;28;20047;-89
2022/02/12 11:10:27;;;;;;;9.48;3.78;;;;;;;2.60;99.31;100291.91;5133411;28;20070;-89
2022/02/12 11:12:59;;;;;;;9.48;3.35;;;;;;;2.71;97.14;100293.00;5133322;28;20196;-90
2022/02/12 11:15:29;;;;;;;5.55;2.67;;;;;;;2.71;98.65;100274.22;5131713;28;20062;-89
2022/02/12 11:17:59;;;;;;;10.60;3.28;;;;;;;2.89;97.18;100283.69;5131825;28;20058;-89
2022/02/12 11:20:27;;;;;;;10.90;3.65;;;;;;;2.90;94.84;100260.34;5133572;28;20051;-89
2022/02/12 11:23:25;;;;;;;6.68;2.88;;;;;;;3.03;95.56;100252.25;5132765;28;20490;-90
2022/02/12 11:25:54;;;;;;;8.07;3.25;;;;;;;3.16;93.11;100259.34;5132919;28;20344;-89
2022/02/12 11:28:29;;;;;;;10.07;3.30;;;;;;;3.22;91.32;100252.66;5132725;28;20047;-89
2022/02/12 11:31:19;;;;;;;5.78;2.63;;;;;;;3.30;91.82;100249.44;5132752;28;20054;-89
2022/02/12 11:34:06;;;;;;;9.43;3.90;;;;;;;3.30;93.60;100226.09;5131729;28;20417;-89